sensor_id;sensor_type;location;lat;lon;timestamp;pressure;altitude;pressure_sealevel;temperature;humidity
7105;BME280;3594;42.152;24.714;2023-02-18T00:01:52;-23987.13;;;6.10;nan
7105;BME280;3594;42.152;24.714;2023-02-18T00:04:18;-23999.75;;;6.55;nan
7105;BME280;3594;42.152;24.714;2023-02-18T00:06:43;-23990.94;;;6.24;nan
7105;BME280;3594;42.152;24.714;2023-02-18T00:09:09;-23988.41;;;6.14;nan
7105;BME280;3594;42.152;24.714;2023-02-18T00:11:36;-23988.97;;;6.16;nan
7105;BME280;3594;42.152;24.714;2023-02-18T00:14:03;-23991.81;;;6.27;nan
7105;BME280;3594;42.152;24.714;2023-02-18T00:16:30;-23993.50;;;6.33;nan
7105;BME280;3594;42.152;24.714;2023-02-18T00:18:57;-23993.22;;;6.32;nan
7105;BME280;3594;42.152;24.714;2023-02-18T00:21:22;-23988.41;;;6.14;nan
7105;BME280;3594;42.152;24.714;2023-02-18T00:23:48;-23973.19;;;5.60;nan
7105;BME280;3594;42.152;24.714;2023-02-18T00:26:15;-23981.44;;;5.90;nan
7105;BME280;3594;42.152;24.714;2023-02-18T00:28:41;-23983.84;;;5.98;nan
7105;BME280;3594;42.152;24.714;2023-02-18T00:31:09;-23976.59;;;5.72;nan
7105;BME280;3594;42.152;24.714;2023-02-18T00:36:05;-23978.88;;;5.81;nan
7105;BME280;3594;42.152;24.714;2023-02-18T00:38:31;-23981.28;;;5.89;nan
7105;BME280;3594;42.152;24.714;2023-02-18T00:40:57;-23971.63;;;5.55;nan
7105;BME280;3594;42.152;24.714;2023-02-18T00:43:23;-23981.28;;;5.89;nan
7105;BME280;3594;42.152;24.714;2023-02-18T00:45:48;-23980.72;;;5.87;nan
7105;BME280;3594;42.152;24.714;2023-02-18T00:48:14;-23979.88;;;5.84;nan
7105;BME280;3594;42.152;24.714;2023-02-18T00:50:39;-23971.34;;;5.54;nan
7105;BME280;3594;42.152;24.714;2023-02-18T00:53:05;-23979.59;;;5.83;nan
7105;BME280;3594;42.152;24.714;2023-02-18T00:55:30;-23975.31;;;5.68;nan
7105;BME280;3594;42.152;24.714;2023-02-18T00:57:55;-23980.16;;;5.85;nan
7105;BME280;3594;42.152;24.714;2023-02-18T01:00:21;-23987.53;;;6.11;nan
7105;BME280;3594;42.152;24.714;2023-02-18T01:02:47;-23983.13;;;5.96;nan
7105;BME280;3594;42.152;24.714;2023-02-18T01:05:12;-23978.59;;;5.79;nan
7105;BME280;3594;42.152;24.714;2023-02-18T01:07:38;-23985.13;;;6.03;nan
7105;BME280;3594;42.152;24.714;2023-02-18T01:10:04;-23971.75;;;5.55;nan
7105;BME280;3594;42.152;24.714;2023-02-18T01:12:30;-23971.34;;;5.54;nan
7105;BME280;3594;42.152;24.714;2023-02-18T01:14:55;-23975.31;;;5.68;nan
7105;BME280;3594;42.152;24.714;2023-02-18T01:17:20;-23976.31;;;5.71;nan
7105;BME280;3594;42.152;24.714;2023-02-18T01:19:46;-23967.78;;;5.41;nan
7105;BME280;3594;42.152;24.714;2023-02-18T01:22:11;-23976.88;;;5.73;nan
7105;BME280;3594;42.152;24.714;2023-02-18T01:24:37;-23972.19;;;5.57;nan
7105;BME280;3594;42.152;24.714;2023-02-18T01:27:03;-23937.78;;;4.34;nan
7105;BME280;3594;42.152;24.714;2023-02-18T01:29:28;-23960.69;;;5.16;nan
7105;BME280;3594;42.152;24.714;2023-02-18T01:31:53;-23930.38;;;4.08;nan
7105;BME280;3594;42.152;24.714;2023-02-18T01:34:19;-23965.09;;;5.31;nan
7105;BME280;3594;42.152;24.714;2023-02-18T01:36:45;-23954.41;;;4.94;nan
7105;BME280;3594;42.152;24.714;2023-02-18T01:39:10;-23958.13;;;5.07;nan
7105;BME280;3594;42.152;24.714;2023-02-18T01:41:35;-23963.25;;;5.25;nan
7105;BME280;3594;42.152;24.714;2023-02-18T01:44:15;-23963.25;;;5.25;nan
7105;BME280;3594;42.152;24.714;2023-02-18T01:46:41;-23968.22;;;5.43;nan
7105;BME280;3594;42.152;24.714;2023-02-18T01:49:07;-23965.09;;;5.31;nan
7105;BME280;3594;42.152;24.714;2023-02-18T01:51:45;-23963.53;;;5.26;nan
7105;BME280;3594;42.152;24.714;2023-02-18T01:54:38;-23967.38;;;5.40;nan
7105;BME280;3594;42.152;24.714;2023-02-18T01:57:13;-23963.38;;;5.25;nan
7105;BME280;3594;42.152;24.714;2023-02-18T02:02:14;-23962.81;;;5.23;nan
7105;BME280;3594;42.152;24.714;2023-02-18T02:04:42;-23956.84;;;5.02;nan
7105;BME280;3594;42.152;24.714;2023-02-18T02:07:08;-23958.81;;;5.09;nan
7105;BME280;3594;42.152;24.714;2023-02-18T02:09:34;-23959.97;;;5.13;nan
7105;BME280;3594;42.152;24.714;2023-02-18T02:14:44;-23964.50;;;5.29;nan
7105;BME280;3594;42.152;24.714;2023-02-18T02:18:01;-23964.50;;;5.29;nan
7105;BME280;3594;42.152;24.714;2023-02-18T02:39:46;-23961.53;;;5.19;nan
7105;BME280;3594;42.152;24.714;2023-02-18T02:42:24;-23969.06;;;5.46;nan
7105;BME280;3594;42.152;24.714;2023-02-18T02:47:50;-23962.81;;;5.23;nan
7105;BME280;3594;42.152;24.714;2023-02-18T02:50:27;-23963.66;;;5.26;nan
7105;BME280;3594;42.152;24.714;2023-02-18T02:52:59;-23961.66;;;5.19;nan
7105;BME280;3594;42.152;24.714;2023-02-18T02:55:26;-23954.72;;;4.95;nan
7105;BME280;3594;42.152;24.714;2023-02-18T02:57:53;-23960.25;;;5.14;nan
7105;BME280;3594;42.152;24.714;2023-02-18T03:06:33;-23959.25;;;5.11;nan
7105;BME280;3594;42.152;24.714;2023-02-18T03:09:15;-23951.84;;;4.84;nan
7105;BME280;3594;42.152;24.714;2023-02-18T03:12:06;-23953.13;;;4.89;nan
7105;BME280;3594;42.152;24.714;2023-02-18T03:14:43;-23952.56;;;4.87;nan
7105;BME280;3594;42.152;24.714;2023-02-18T03:17:22;-23944.31;;;4.58;nan
7105;BME280;3594;42.152;24.714;2023-02-18T03:19:54;-23943.75;;;4.56;nan
7105;BME280;3594;42.152;24.714;2023-02-18T03:22:29;-23945.59;;;4.62;nan
7105;BME280;3594;42.152;24.714;2023-02-18T03:24:57;-23939.34;;;4.40;nan
7105;BME280;3594;42.152;24.714;2023-02-18T03:30:03;-23943.31;;;4.54;nan
7105;BME280;3594;42.152;24.714;2023-02-18T03:32:30;-23941.91;;;4.49;nan
7105;BME280;3594;42.152;24.714;2023-02-18T03:35:00;-23933.63;;;4.20;nan
7105;BME280;3594;42.152;24.714;2023-02-18T03:37:28;-23942.03;;;4.50;nan
7105;BME280;3594;42.152;24.714;2023-02-18T03:39:56;-23944.19;;;4.57;nan
7105;BME280;3594;42.152;24.714;2023-02-18T03:42:25;-23943.31;;;4.54;nan
7105;BME280;3594;42.152;24.714;2023-02-18T03:44:51;-23953.72;;;4.91;nan
7105;BME280;3594;42.152;24.714;2023-02-18T03:47:17;-23951.44;;;4.83;nan
7105;BME280;3594;42.152;24.714;2023-02-18T03:49:42;-23966.09;;;5.35;nan
7105;BME280;3594;42.152;24.714;2023-02-18T03:52:08;-23965.50;;;5.33;nan
7105;BME280;3594;42.152;24.714;2023-02-18T03:54:33;-23964.81;;;5.30;nan
7105;BME280;3594;42.152;24.714;2023-02-18T03:56:59;-23962.81;;;5.23;nan
7105;BME280;3594;42.152;24.714;2023-02-18T03:59:24;-23961.38;;;5.18;nan
7105;BME280;3594;42.152;24.714;2023-02-18T04:01:49;-23942.03;;;4.50;nan
7105;BME280;3594;42.152;24.714;2023-02-18T04:04:15;-23930.66;;;4.09;nan
7105;BME280;3594;42.152;24.714;2023-02-18T04:06:40;-23950.16;;;4.78;nan
7105;BME280;3594;42.152;24.714;2023-02-18T04:09:06;-23946.03;;;4.64;nan
7105;BME280;3594;42.152;24.714;2023-02-18T04:11:37;-23945.47;;;4.62;nan
7105;BME280;3594;42.152;24.714;2023-02-18T04:14:04;-23947.44;;;4.69;nan
7105;BME280;3594;42.152;24.714;2023-02-18T04:16:30;-23945.75;;;4.63;nan
7105;BME280;3594;42.152;24.714;2023-02-18T04:18:55;-23943.47;;;4.55;nan
7105;BME280;3594;42.152;24.714;2023-02-18T04:21:21;-23945.16;;;4.61;nan
7105;BME280;3594;42.152;24.714;2023-02-18T04:23:46;-23939.06;;;4.39;nan
7105;BME280;3594;42.152;24.714;2023-02-18T04:26:11;-23947.03;;;4.67;nan
7105;BME280;3594;42.152;24.714;2023-02-18T04:28:37;-23944.88;;;4.60;nan
7105;BME280;3594;42.152;24.714;2023-02-18T04:31:02;-23941.91;;;4.49;nan
7105;BME280;3594;42.152;24.714;2023-02-18T04:33:28;-23943.19;;;4.54;nan
7105;BME280;3594;42.152;24.714;2023-02-18T04:35:53;-23953.72;;;4.91;nan
7105;BME280;3594;42.152;24.714;2023-02-18T04:38:19;-23945.59;;;4.62;nan
7105;BME280;3594;42.152;24.714;2023-02-18T04:40:44;-23952.72;;;4.87;nan
7105;BME280;3594;42.152;24.714;2023-02-18T04:43:09;-23964.38;;;5.29;nan
7105;BME280;3594;42.152;24.714;2023-02-18T04:45:35;-23956.13;;;5.00;nan
7105;BME280;3594;42.152;24.714;2023-02-18T04:48:00;-23954.84;;;4.95;nan
7105;BME280;3594;42.152;24.714;2023-02-18T04:50:26;-23960.69;;;5.16;nan
7105;BME280;3594;42.152;24.714;2023-02-18T04:52:51;-23958.81;;;5.09;nan
7105;BME280;3594;42.152;24.714;2023-02-18T04:55:17;-23961.09;;;5.17;nan
7105;BME280;3594;42.152;24.714;2023-02-18T04:57:42;-23963.25;;;5.25;nan
7105;BME280;3594;42.152;24.714;2023-02-18T05:00:09;-23967.50;;;5.40;nan
7105;BME280;3594;42.152;24.714;2023-02-18T05:02:38;-23968.63;;;5.44;nan
7105;BME280;3594;42.152;24.714;2023-02-18T05:05:04;-23976.31;;;5.71;nan
7105;BME280;3594;42.152;24.714;2023-02-18T05:07:29;-23983.41;;;5.97;nan
7105;BME280;3594;42.152;24.714;2023-02-18T05:09:54;-23990.81;;;6.23;nan
7105;BME280;3594;42.152;24.714;2023-02-18T05:12:20;-23991.53;;;6.26;nan
7105;BME280;3594;42.152;24.714;2023-02-18T05:14:45;-23992.66;;;6.30;nan
7105;BME280;3594;42.152;24.714;2023-02-18T05:17:11;-23992.94;;;6.31;nan
7105;BME280;3594;42.152;24.714;2023-02-18T05:19:36;-23994.06;;;6.35;nan
7105;BME280;3594;42.152;24.714;2023-02-18T05:22:02;-23995.22;;;6.39;nan
7105;BME280;3594;42.152;24.714;2023-02-18T05:24:27;-23993.66;;;6.33;nan
7105;BME280;3594;42.152;24.714;2023-02-18T05:26:53;-23992.94;;;6.31;nan
7105;BME280;3594;42.152;24.714;2023-02-18T05:29:18;-23997.91;;;6.48;nan
7105;BME280;3594;42.152;24.714;2023-02-18T05:31:44;-23998.91;;;6.52;nan
7105;BME280;3594;42.152;24.714;2023-02-18T05:34:09;-24004.00;;;6.70;nan
7105;BME280;3594;42.152;24.714;2023-02-18T05:36:35;-23997.91;;;6.48;nan
7105;BME280;3594;42.152;24.714;2023-02-18T05:39:01;-24006.28;;;6.78;nan
7105;BME280;3594;42.152;24.714;2023-02-18T05:41:26;-24009.25;;;6.89;nan
7105;BME280;3594;42.152;24.714;2023-02-18T05:43:52;-24009.41;;;6.89;nan
7105;BME280;3594;42.152;24.714;2023-02-18T05:46:36;-24015.06;;;7.09;nan
7105;BME280;3594;42.152;24.714;2023-02-18T05:49:01;-24014.78;;;7.08;nan
7105;BME280;3594;42.152;24.714;2023-02-18T05:51:26;-24023.31;;;7.39;nan
7105;BME280;3594;42.152;24.714;2023-02-18T05:53:52;-24026.41;;;7.50;nan
7105;BME280;3594;42.152;24.714;2023-02-18T05:56:17;-24020.47;;;7.29;nan
7105;BME280;3594;42.152;24.714;2023-02-18T05:58:43;-24033.22;;;7.74;nan
7105;BME280;3594;42.152;24.714;2023-02-18T06:01:08;-24031.94;;;7.70;nan
7105;BME280;3594;42.152;24.714;2023-02-18T06:03:34;-24038.59;;;7.93;nan
7105;BME280;3594;42.152;24.714;2023-02-18T06:06:00;-24044.97;;;8.16;nan
7105;BME280;3594;42.152;24.714;2023-02-18T06:08:26;-24045.13;;;8.17;nan
7105;BME280;3594;42.152;24.714;2023-02-18T06:10:51;-24052.78;;;8.44;nan
7105;BME280;3594;42.152;24.714;2023-02-18T06:13:17;-24049.50;;;8.32;nan
7105;BME280;3594;42.152;24.714;2023-02-18T06:15:43;-24049.09;;;8.31;nan
7105;BME280;3594;42.152;24.714;2023-02-18T06:18:08;-24059.00;;;8.66;nan
7105;BME280;3594;42.152;24.714;2023-02-18T06:20:34;-24053.91;;;8.48;nan
7105;BME280;3594;42.152;24.714;2023-02-18T06:22:59;-24056.31;;;8.57;nan
7105;BME280;3594;42.152;24.714;2023-02-18T06:25:24;-24063.81;;;8.83;nan
7105;BME280;3594;42.152;24.714;2023-02-18T06:27:50;-24059.97;;;8.70;nan
7105;BME280;3594;42.152;24.714;2023-02-18T06:30:16;-24072.56;;;9.15;nan
7105;BME280;3594;42.152;24.714;2023-02-18T06:32:41;-24067.06;;;8.95;nan
7105;BME280;3594;42.152;24.714;2023-02-18T06:35:07;-24075.53;;;9.25;nan
7105;BME280;3594;42.152;24.714;2023-02-18T06:37:32;-24080.78;;;9.44;nan
7105;BME280;3594;42.152;24.714;2023-02-18T06:39:58;-24085.56;;;9.61;nan
7105;BME280;3594;42.152;24.714;2023-02-18T06:42:23;-24091.50;;;9.83;nan
7105;BME280;3594;42.152;24.714;2023-02-18T06:44:49;-24097.31;;;10.03;nan
7105;BME280;3594;42.152;24.714;2023-02-18T06:47:14;-24103.66;;;10.26;nan
7105;BME280;3594;42.152;24.714;2023-02-18T06:52:05;-24109.31;;;10.46;nan
7105;BME280;3594;42.152;24.714;2023-02-18T06:54:32;-24117.63;;;10.76;nan
7105;BME280;3594;42.152;24.714;2023-02-18T06:56:57;-24114.38;;;10.64;nan
7105;BME280;3594;42.152;24.714;2023-02-18T06:59:23;-24124.53;;;11.01;nan
7105;BME280;3594;42.152;24.714;2023-02-18T07:01:48;-24121.28;;;10.89;nan
7105;BME280;3594;42.152;24.714;2023-02-18T07:04:14;-24105.34;;;10.32;nan
7105;BME280;3594;42.152;24.714;2023-02-18T07:06:39;-24136.38;;;11.43;nan
7105;BME280;3594;42.152;24.714;2023-02-18T07:09:05;-24132.16;;;11.28;nan
7105;BME280;3594;42.152;24.714;2023-02-18T07:11:30;-24146.81;;;11.81;nan
7105;BME280;3594;42.152;24.714;2023-02-18T07:13:56;-24144.56;;;11.73;nan
7105;BME280;3594;42.152;24.714;2023-02-18T07:16:21;-24154.41;;;12.08;nan
7105;BME280;3594;42.152;24.714;2023-02-18T07:18:46;-24158.06;;;12.21;nan
7105;BME280;3594;42.152;24.714;2023-02-18T07:21:12;-24164.53;;;12.45;nan
7105;BME280;3594;42.152;24.714;2023-02-18T07:23:37;-24168.75;;;12.60;nan
7105;BME280;3594;42.152;24.714;2023-02-18T07:26:05;-24170.16;;;12.65;nan
7105;BME280;3594;42.152;24.714;2023-02-18T07:28:30;-24167.78;;;12.56;nan
7105;BME280;3594;42.152;24.714;2023-02-18T07:30:56;-24173.97;;;12.78;nan
7105;BME280;3594;42.152;24.714;2023-02-18T07:33:21;-24177.34;;;12.91;nan
7105;BME280;3594;42.152;24.714;2023-02-18T07:35:52;-24177.75;;;12.92;nan
7105;BME280;3594;42.152;24.714;2023-02-18T07:38:17;-24172.97;;;12.75;nan
7105;BME280;3594;42.152;24.714;2023-02-18T07:40:44;-24178.75;;;12.96;nan
7105;BME280;3594;42.152;24.714;2023-02-18T07:43:09;-24171.44;;;12.69;nan
7105;BME280;3594;42.152;24.714;2023-02-18T07:45:37;-24176.06;;;12.86;nan
7105;BME280;3594;42.152;24.714;2023-02-18T07:48:02;-24092.91;;;9.88;nan
7105;BME280;3594;42.152;24.714;2023-02-18T07:50:28;-24182.81;;;13.10;nan
7105;BME280;3594;42.152;24.714;2023-02-18T07:53:00;-24178.47;;;12.95;nan
7105;BME280;3594;42.152;24.714;2023-02-18T07:55:25;-24180.84;;;13.03;nan
7105;BME280;3594;42.152;24.714;2023-02-18T07:58:11;-24182.13;;;13.08;nan
7105;BME280;3594;42.152;24.714;2023-02-18T08:00:36;-24188.44;;;13.31;nan
7105;BME280;3594;42.152;24.714;2023-02-18T08:03:03;-24188.31;;;13.30;nan
7105;BME280;3594;42.152;24.714;2023-02-18T08:05:28;-24194.34;;;13.52;nan
7105;BME280;3594;42.152;24.714;2023-02-18T08:07:54;-24199.97;;;13.72;nan
7105;BME280;3594;42.152;24.714;2023-02-18T08:10:20;-24205.00;;;13.90;nan
7105;BME280;3594;42.152;24.714;2023-02-18T08:12:46;-24206.84;;;13.97;nan
7105;BME280;3594;42.152;24.714;2023-02-18T08:15:12;-24208.81;;;14.04;nan
7105;BME280;3594;42.152;24.714;2023-02-18T08:17:38;-24212.16;;;14.16;nan
7105;BME280;3594;42.152;24.714;2023-02-18T08:20:04;-24222.56;;;14.53;nan
7105;BME280;3594;42.152;24.714;2023-02-18T08:22:29;-24218.75;;;14.40;nan
7105;BME280;3594;42.152;24.714;2023-02-18T08:24:55;-24215.13;;;14.27;nan
7105;BME280;3594;42.152;24.714;2023-02-18T08:27:21;-24212.88;;;14.19;nan
7105;BME280;3594;42.152;24.714;2023-02-18T08:29:46;-24213.84;;;14.22;nan
7105;BME280;3594;42.152;24.714;2023-02-18T08:32:12;-24214.97;;;14.26;nan
7105;BME280;3594;42.152;24.714;2023-02-18T08:34:38;-24219.59;;;14.43;nan
7105;BME280;3594;42.152;24.714;2023-02-18T08:37:03;-24230.13;;;14.81;nan
7105;BME280;3594;42.152;24.714;2023-02-18T08:39:33;-24229.97;;;14.80;nan
7105;BME280;3594;42.152;24.714;2023-02-18T08:41:59;-24241.59;;;15.22;nan
7105;BME280;3594;42.152;24.714;2023-02-18T08:44:26;-24238.94;;;15.13;nan
7105;BME280;3594;42.152;24.714;2023-02-18T08:46:51;-24238.81;;;15.12;nan
7105;BME280;3594;42.152;24.714;2023-02-18T08:49:17;-24233.91;;;14.94;nan
7105;BME280;3594;42.152;24.714;2023-02-18T08:51:46;-24246.50;;;15.40;nan
7105;BME280;3594;42.152;24.714;2023-02-18T08:54:12;-24244.13;;;15.31;nan
7105;BME280;3594;42.152;24.714;2023-02-18T08:56:37;-24250.56;;;15.55;nan
7105;BME280;3594;42.152;24.714;2023-02-18T08:59:04;-24254.63;;;15.69;nan
7105;BME280;3594;42.152;24.714;2023-02-18T09:01:30;-24254.50;;;15.69;nan
7105;BME280;3594;42.152;24.714;2023-02-18T09:03:56;-24266.66;;;16.13;nan
7105;BME280;3594;42.152;24.714;2023-02-18T09:06:21;-24274.22;;;16.40;nan
7105;BME280;3594;42.152;24.714;2023-02-18T09:08:47;-24277.28;;;16.51;nan
7105;BME280;3594;42.152;24.714;2023-02-18T09:11:13;-24272.41;;;16.33;nan
7105;BME280;3594;42.152;24.714;2023-02-18T09:13:39;-24122.84;;;10.95;nan
7105;BME280;3594;42.152;24.714;2023-02-18T09:16:07;-24272.97;;;16.35;nan
7105;BME280;3594;42.152;24.714;2023-02-18T09:18:33;-24275.63;;;16.45;nan
7105;BME280;3594;42.152;24.714;2023-02-18T09:21:03;-24281.22;;;16.65;nan
7105;BME280;3594;42.152;24.714;2023-02-18T09:23:30;-24291.81;;;17.04;nan
7105;BME280;3594;42.152;24.714;2023-02-18T09:25:56;-24285.25;;;16.80;nan
7105;BME280;3594;42.152;24.714;2023-02-18T09:28:22;-24290.56;;;16.99;nan
7105;BME280;3594;42.152;24.714;2023-02-18T09:30:48;-24295.44;;;17.17;nan
7105;BME280;3594;42.152;24.714;2023-02-18T09:33:13;-24281.34;;;16.66;nan
7105;BME280;3594;42.152;24.714;2023-02-18T09:35:40;-24286.50;;;16.85;nan
7105;BME280;3594;42.152;24.714;2023-02-18T09:38:07;-24288.19;;;16.91;nan
7105;BME280;3594;42.152;24.714;2023-02-18T09:40:34;-24293.50;;;17.10;nan
7105;BME280;3594;42.152;24.714;2023-02-18T09:43:01;-24286.78;;;16.86;nan
7105;BME280;3594;42.152;24.714;2023-02-18T09:45:27;-24291.00;;;17.01;nan
7105;BME280;3594;42.152;24.714;2023-02-18T09:47:53;-24298.53;;;17.28;nan
7105;BME280;3594;42.152;24.714;2023-02-18T09:50:28;-24304.66;;;17.50;nan
7105;BME280;3594;42.152;24.714;2023-02-18T09:52:57;-24303.00;;;17.44;nan
7105;BME280;3594;42.152;24.714;2023-02-18T09:55:29;-24296.84;;;17.22;nan
7105;BME280;3594;42.152;24.714;2023-02-18T09:57:59;-24285.69;;;16.82;nan
7105;BME280;3594;42.152;24.714;2023-02-18T10:00:36;-24308.84;;;17.65;nan
7105;BME280;3594;42.152;24.714;2023-02-18T10:03:06;-24318.19;;;17.99;nan
7105;BME280;3594;42.152;24.714;2023-02-18T10:08:06;-24309.84;;;17.69;nan
7105;BME280;3594;42.152;24.714;2023-02-18T10:10:45;-24314.44;;;17.86;nan
7105;BME280;3594;42.152;24.714;2023-02-18T10:13:18;-24316.38;;;17.93;nan
7105;BME280;3594;42.152;24.714;2023-02-18T10:15:44;-24323.06;;;18.17;nan
7105;BME280;3594;42.152;24.714;2023-02-18T10:18:31;-24334.09;;;18.57;nan
7105;BME280;3594;42.152;24.714;2023-02-18T10:21:11;-24338.13;;;18.72;nan
7105;BME280;3594;42.152;24.714;2023-02-18T10:23:53;-24332.69;;;18.52;nan
7105;BME280;3594;42.152;24.714;2023-02-18T10:26:21;-24333.13;;;18.53;nan
7105;BME280;3594;42.152;24.714;2023-02-18T10:28:48;-24337.56;;;18.70;nan
7105;BME280;3594;42.152;24.714;2023-02-18T10:31:29;-24334.78;;;18.60;nan
7105;BME280;3594;42.152;24.714;2023-02-18T10:33:58;-24338.41;;;18.73;nan
7105;BME280;3594;42.152;24.714;2023-02-18T10:41:59;-24344.38;;;18.94;nan
7105;BME280;3594;42.152;24.714;2023-02-18T10:44:47;-24347.88;;;19.07;nan
7105;BME280;3594;42.152;24.714;2023-02-18T10:47:34;-24343.69;;;18.92;nan
7105;BME280;3594;42.152;24.714;2023-02-18T10:52:54;-24339.09;;;18.75;nan
7105;BME280;3594;42.152;24.714;2023-02-18T10:55:37;-24339.94;;;18.78;nan
7105;BME280;3594;42.152;24.714;2023-02-18T10:58:03;-24343.84;;;18.92;nan
7105;BME280;3594;42.152;24.714;2023-02-18T11:00:34;-24347.59;;;19.06;nan
7105;BME280;3594;42.152;24.714;2023-02-18T11:03:15;-24353.00;;;19.26;nan
7105;BME280;3594;42.152;24.714;2023-02-18T11:05:44;-24353.16;;;19.26;nan
7105;BME280;3594;42.152;24.714;2023-02-18T11:08:16;-24359.84;;;19.51;nan
7105;BME280;3594;42.152;24.714;2023-02-18T11:10:44;-24357.47;;;19.42;nan
7105;BME280;3594;42.152;24.714;2023-02-18T11:13:12;-24364.56;;;19.68;nan
7105;BME280;3594;42.152;24.714;2023-02-18T11:15:56;-24367.91;;;19.80;nan
7105;BME280;3594;42.152;24.714;2023-02-18T11:20:58;-24363.44;;;19.64;nan
7105;BME280;3594;42.152;24.714;2023-02-18T11:23:24;-24357.19;;;19.41;nan
7105;BME280;3594;42.152;24.714;2023-02-18T11:25:54;-24366.22;;;19.74;nan
7105;BME280;3594;42.152;24.714;2023-02-18T11:28:57;-24364.28;;;19.67;nan
7105;BME280;3594;42.152;24.714;2023-02-18T11:31:28;-24361.50;;;19.57;nan
7105;BME280;3594;42.152;24.714;2023-02-18T11:33:59;-24370.41;;;19.89;nan
7105;BME280;3594;42.152;24.714;2023-02-18T11:36:29;-24368.88;;;19.83;nan
7105;BME280;3594;42.152;24.714;2023-02-18T11:38:58;-24373.88;;;20.02;nan
7105;BME280;3594;42.152;24.714;2023-02-18T11:43:59;-24377.91;;;20.16;nan
7105;BME280;3594;42.152;24.714;2023-02-18T11:46:27;-24370.13;;;19.88;nan
7105;BME280;3594;42.152;24.714;2023-02-18T11:48:55;-24292.38;;;17.06;nan
7105;BME280;3594;42.152;24.714;2023-02-18T11:51:34;-24366.50;;;19.75;nan
7105;BME280;3594;42.152;24.714;2023-02-18T11:54:09;-24359.69;;;19.50;nan
7105;BME280;3594;42.152;24.714;2023-02-18T11:57:03;-24359.41;;;19.49;nan
7105;BME280;3594;42.152;24.714;2023-02-18T11:59:37;-24358.16;;;19.45;nan
7105;BME280;3594;42.152;24.714;2023-02-18T12:05:13;-24371.09;;;19.92;nan
7105;BME280;3594;42.152;24.714;2023-02-18T12:07:57;-24376.38;;;20.11;nan
7105;BME280;3594;42.152;24.714;2023-02-18T12:13:05;-24381.94;;;20.31;nan
7105;BME280;3594;42.152;24.714;2023-02-18T12:21:10;-24386.94;;;20.49;nan
7105;BME280;3594;42.152;24.714;2023-02-18T12:23:57;-24382.22;;;20.32;nan
7105;BME280;3594;42.152;24.714;2023-02-18T12:26:29;-24385.81;;;20.45;nan
7105;BME280;3594;42.152;24.714;2023-02-18T12:29:12;-24386.53;;;20.48;nan
7105;BME280;3594;42.152;24.714;2023-02-18T12:31:55;-24389.56;;;20.59;nan
7105;BME280;3594;42.152;24.714;2023-02-18T12:34:46;-24385.41;;;20.44;nan
7105;BME280;3594;42.152;24.714;2023-02-18T12:42:58;-24390.41;;;20.62;nan
7105;BME280;3594;42.152;24.714;2023-02-18T12:45:35;-24384.84;;;20.42;nan
7105;BME280;3594;42.152;24.714;2023-02-18T12:48:18;-24388.59;;;20.55;nan
7105;BME280;3594;42.152;24.714;2023-02-18T12:51:11;-24389.97;;;20.60;nan
7105;BME280;3594;42.152;24.714;2023-02-18T13:05:43;-24373.31;;;20.00;nan
7105;BME280;3594;42.152;24.714;2023-02-18T13:13:23;-24383.03;;;20.35;nan
7105;BME280;3594;42.152;24.714;2023-02-18T13:16:09;-24377.22;;;20.14;nan
7105;BME280;3594;42.152;24.714;2023-02-18T13:18:44;-24384.72;;;20.41;nan
7105;BME280;3594;42.152;24.714;2023-02-18T13:21:13;-24377.06;;;20.13;nan
7105;BME280;3594;42.152;24.714;2023-02-18T13:24:02;-24380.25;;;20.25;nan
7105;BME280;3594;42.152;24.714;2023-02-18T13:26:31;-24370.81;;;19.91;nan
7105;BME280;3594;42.152;24.714;2023-02-18T13:32:02;-24376.78;;;20.12;nan
7105;BME280;3594;42.152;24.714;2023-02-18T13:38:14;-24374.16;;;20.03;nan
7105;BME280;3594;42.152;24.714;2023-02-18T13:40:44;-24372.63;;;19.97;nan
7105;BME280;3594;42.152;24.714;2023-02-18T13:43:32;-24370.69;;;19.90;nan
7105;BME280;3594;42.152;24.714;2023-02-18T13:48:28;-24368.72;;;19.83;nan
7105;BME280;3594;42.152;24.714;2023-02-18T13:51:02;-24363.03;;;19.62;nan
7105;BME280;3594;42.152;24.714;2023-02-18T13:53:31;-24361.38;;;19.56;nan
7105;BME280;3594;42.152;24.714;2023-02-18T13:56:03;-24358.16;;;19.45;nan
7105;BME280;3594;42.152;24.714;2023-02-18T13:58:41;-24365.53;;;19.71;nan
7105;BME280;3594;42.152;24.714;2023-02-18T14:01:13;-24360.53;;;19.53;nan
7105;BME280;3594;42.152;24.714;2023-02-18T14:06:34;-24354.28;;;19.30;nan
7105;BME280;3594;42.152;24.714;2023-02-18T14:11:55;-24354.41;;;19.31;nan
7105;BME280;3594;42.152;24.714;2023-02-18T14:22:51;-24351.47;;;19.20;nan
7105;BME280;3594;42.152;24.714;2023-02-18T14:27:45;-24353.00;;;19.26;nan
7105;BME280;3594;42.152;24.714;2023-02-18T14:32:50;-24358.59;;;19.46;nan
7105;BME280;3594;42.152;24.714;2023-02-18T14:38:29;-24354.69;;;19.32;nan
7105;BME280;3594;42.152;24.714;2023-02-18T14:41:07;-24348.84;;;19.11;nan
7105;BME280;3594;42.152;24.714;2023-02-18T14:46:48;-24346.75;;;19.03;nan
7105;BME280;3594;42.152;24.714;2023-02-18T14:49:41;-24342.72;;;18.88;nan
7105;BME280;3594;42.152;24.714;2023-02-18T14:52:49;-24335.47;;;18.62;nan
7105;BME280;3594;42.152;24.714;2023-02-18T14:55:22;-24331.84;;;18.49;nan
7105;BME280;3594;42.152;24.714;2023-02-18T14:57:51;-24341.03;;;18.82;nan
7105;BME280;3594;42.152;24.714;2023-02-18T15:00:22;-24335.75;;;18.63;nan
7105;BME280;3594;42.152;24.714;2023-02-18T15:02:50;-24334.22;;;18.58;nan
7105;BME280;3594;42.152;24.714;2023-02-18T15:05:21;-24323.06;;;18.17;nan
7105;BME280;3594;42.152;24.714;2023-02-18T15:13:34;-24321.41;;;18.11;nan
7105;BME280;3594;42.152;24.714;2023-02-18T15:16:03;-24319.44;;;18.04;nan
7105;BME280;3594;42.152;24.714;2023-02-18T15:18:42;-24325.03;;;18.24;nan
7105;BME280;3594;42.152;24.714;2023-02-18T15:21:18;-24312.63;;;17.79;nan
7105;BME280;3594;42.152;24.714;2023-02-18T15:23:45;-24311.38;;;17.75;nan
7105;BME280;3594;42.152;24.714;2023-02-18T15:26:14;-24319.19;;;18.03;nan
7105;BME280;3594;42.152;24.714;2023-02-18T15:28:51;-24313.31;;;17.82;nan
7105;BME280;3594;42.152;24.714;2023-02-18T15:31:18;-24300.91;;;17.37;nan
7105;BME280;3594;42.152;24.714;2023-02-18T15:33:48;-24308.72;;;17.65;nan
7105;BME280;3594;42.152;24.714;2023-02-18T15:36:14;-24304.66;;;17.50;nan
7105;BME280;3594;42.152;24.714;2023-02-18T15:38:39;-24305.50;;;17.53;nan
7105;BME280;3594;42.152;24.714;2023-02-18T15:41:15;-24298.81;;;17.29;nan
7105;BME280;3594;42.152;24.714;2023-02-18T15:43:55;-24299.63;;;17.32;nan
7105;BME280;3594;42.152;24.714;2023-02-18T15:46:24;-24297.81;;;17.26;nan
7105;BME280;3594;42.152;24.714;2023-02-18T15:48:52;-24283.03;;;16.72;nan
7105;BME280;3594;42.152;24.714;2023-02-18T15:51:21;-24281.91;;;16.68;nan